sensor_id;sensor_type;location;lat;lon;timestamp;pressure;altitude;pressure_sealevel;temperature;humidity
3748;BME280;1889;50.058;8.688;2023-05-23T00:02:07;100037.08;;;20.02;78.81
3748;BME280;1889;50.058;8.688;2023-05-23T00:04:36;100035.52;;;20.28;77.47
3748;BME280;1889;50.058;8.688;2023-05-23T00:07:05;100035.52;;;20.28;77.47
3748;BME280;1889;50.058;8.688;2023-05-23T00:09:34;100039.25;;;20.41;76.13
3748;BME280;1889;50.058;8.688;2023-05-23T00:12:04;100042.42;;;20.32;77.00
3748;BME280;1889;50.058;8.688;2023-05-23T00:14:34;100046.13;;;20.29;77.28
3748;BME280;1889;50.058;8.688;2023-05-23T00:17:03;100042.78;;;20.18;78.06
3748;BME280;1889;50.058;8.688;2023-05-23T00:19:33;100037.34;;;20.27;77.22
3748;BME280;1889;50.058;8.688;2023-05-23T00:22:03;100037.08;;;20.32;76.17
3748;BME280;1889;50.058;8.688;2023-05-23T00:24:32;100036.84;;;20.43;76.10
3748;BME280;1889;50.058;8.688;2023-05-23T00:27:01;100039.97;;;20.59;74.75
3748;BME280;1889;50.058;8.688;2023-05-23T00:29:30;100039.59;;;20.65;75.01
3748;BME280;1889;50.058;8.688;2023-05-23T00:31:59;100035.37;;;20.68;74.67
3748;BME280;1889;50.058;8.688;2023-05-23T00:34:29;100031.95;;;20.73;74.79
3748;BME280;1889;50.058;8.688;2023-05-23T00:36:58;100027.94;;;20.66;74.66
3748;BME280;1889;50.058;8.688;2023-05-23T00:39:28;100036.50;;;20.49;76.40
3748;BME280;1889;50.058;8.688;2023-05-23T00:41:58;100037.55;;;20.54;76.44
3748;BME280;1889;50.058;8.688;2023-05-23T00:44:28;100037.55;;;20.54;76.44
3748;BME280;1889;50.058;8.688;2023-05-23T00:46:58;100043.67;;;20.56;75.97
3748;BME280;1889;50.058;8.688;2023-05-23T00:49:27;100043.67;;;20.56;75.97
3748;BME280;1889;50.058;8.688;2023-05-23T00:51:56;100047.83;;;20.39;77.03
3748;BME280;1889;50.058;8.688;2023-05-23T00:54:27;100061.57;;;20.17;78.30
3748;BME280;1889;50.058;8.688;2023-05-23T00:56:58;100062.00;;;20.32;77.46
3748;BME280;1889;50.058;8.688;2023-05-23T00:59:28;100062.00;;;20.32;77.46
3748;BME280;1889;50.058;8.688;2023-05-23T01:01:58;100064.02;;;20.13;77.38
3748;BME280;1889;50.058;8.688;2023-05-23T01:04:28;100062.56;;;19.85;79.03
3748;BME280;1889;50.058;8.688;2023-05-23T01:07:00;100057.93;;;19.79;79.29
3748;BME280;1889;50.058;8.688;2023-05-23T01:09:29;100070.77;;;19.89;78.88
3748;BME280;1889;50.058;8.688;2023-05-23T01:12:03;100068.66;;;19.55;80.62
3748;BME280;1889;50.058;8.688;2023-05-23T01:14:41;100068.66;;;19.55;80.62
3748;BME280;1889;50.058;8.688;2023-05-23T01:17:23;100082.39;;;19.23;83.88
3748;BME280;1889;50.058;8.688;2023-05-23T01:20:05;100082.27;;;19.51;81.61
3748;BME280;1889;50.058;8.688;2023-05-23T01:28:10;100074.73;;;19.97;78.48
3748;BME280;1889;50.058;8.688;2023-05-23T01:30:42;100074.73;;;19.97;78.48
3748;BME280;1889;50.058;8.688;2023-05-23T01:33:14;100075.43;;;20.01;78.13
3748;BME280;1889;50.058;8.688;2023-05-23T01:35:45;100065.55;;;20.10;77.55
3748;BME280;1889;50.058;8.688;2023-05-23T01:38:14;100067.94;;;20.14;77.25
3748;BME280;1889;50.058;8.688;2023-05-23T01:40:43;100060.84;;;20.06;77.73
3748;BME280;1889;50.058;8.688;2023-05-23T01:43:13;100070.78;;;20.11;77.09
3748;BME280;1889;50.058;8.688;2023-05-23T01:45:43;100076.23;;;19.78;78.96
3748;BME280;1889;50.058;8.688;2023-05-23T01:48:12;100079.25;;;19.88;78.02
3748;BME280;1889;50.058;8.688;2023-05-23T01:50:43;100076.80;;;20.08;77.49
3748;BME280;1889;50.058;8.688;2023-05-23T01:53:19;100076.02;;;20.06;76.63
3748;BME280;1889;50.058;8.688;2023-05-23T01:55:48;100076.02;;;20.06;76.63
3748;BME280;1889;50.058;8.688;2023-05-23T01:58:18;100082.71;;;19.90;76.82
3748;BME280;1889;50.058;8.688;2023-05-23T02:00:47;100080.98;;;19.89;76.97
3748;BME280;1889;50.058;8.688;2023-05-23T02:03:16;100080.98;;;19.89;76.97
3748;BME280;1889;50.058;8.688;2023-05-23T02:05:46;100083.89;;;19.62;78.03
3748;BME280;1889;50.058;8.688;2023-05-23T02:08:15;100083.89;;;19.62;78.03
3748;BME280;1889;50.058;8.688;2023-05-23T02:10:44;100088.48;;;19.67;77.62
3748;BME280;1889;50.058;8.688;2023-05-23T02:13:13;100091.45;;;19.54;78.21
3748;BME280;1889;50.058;8.688;2023-05-23T02:15:43;100091.45;;;19.54;78.21
3748;BME280;1889;50.058;8.688;2023-05-23T02:18:12;100102.23;;;19.68;77.62
3748;BME280;1889;50.058;8.688;2023-05-23T02:20:42;100111.23;;;19.41;78.79
3748;BME280;1889;50.058;8.688;2023-05-23T02:23:11;100109.70;;;19.37;79.91
3748;BME280;1889;50.058;8.688;2023-05-23T02:25:40;100102.42;;;19.56;78.43
3748;BME280;1889;50.058;8.688;2023-05-23T02:28:09;100102.42;;;19.56;78.43
3748;BME280;1889;50.058;8.688;2023-05-23T02:30:40;100112.56;;;19.74;77.98
3748;BME280;1889;50.058;8.688;2023-05-23T02:33:09;100106.20;;;19.76;77.14
3748;BME280;1889;50.058;8.688;2023-05-23T02:35:39;100106.20;;;19.76;77.14
3748;BME280;1889;50.058;8.688;2023-05-23T02:38:08;100111.53;;;19.61;78.02
3748;BME280;1889;50.058;8.688;2023-05-23T02:40:37;100104.02;;;19.52;78.36
3748;BME280;1889;50.058;8.688;2023-05-23T02:43:06;100104.02;;;19.52;78.36
3748;BME280;1889;50.058;8.688;2023-05-23T02:45:35;100116.61;;;19.65;77.76
3748;BME280;1889;50.058;8.688;2023-05-23T02:48:05;100116.61;;;19.65;77.76
3748;BME280;1889;50.058;8.688;2023-05-23T02:50:34;100124.17;;;19.57;77.82
3748;BME280;1889;50.058;8.688;2023-05-23T02:53:03;100124.17;;;19.57;77.82
3748;BME280;1889;50.058;8.688;2023-05-23T02:55:33;100140.81;;;19.21;79.63
3748;BME280;1889;50.058;8.688;2023-05-23T02:58:02;100132.01;;;19.27;79.50
3748;BME280;1889;50.058;8.688;2023-05-23T03:00:33;100125.53;;;19.49;77.90
3748;BME280;1889;50.058;8.688;2023-05-23T03:03:02;100115.72;;;19.49;77.60
3748;BME280;1889;50.058;8.688;2023-05-23T03:05:31;100115.39;;;19.38;77.96
3748;BME280;1889;50.058;8.688;2023-05-23T03:08:01;100109.51;;;19.40;77.70
3748;BME280;1889;50.058;8.688;2023-05-23T03:10:30;100126.50;;;18.80;80.00
3748;BME280;1889;50.058;8.688;2023-05-23T03:12:59;100127.05;;;18.42;83.09
3748;BME280;1889;50.058;8.688;2023-05-23T03:15:29;100127.05;;;18.42;83.09
3748;BME280;1889;50.058;8.688;2023-05-23T03:17:58;100141.30;;;19.03;79.53
3748;BME280;1889;50.058;8.688;2023-05-23T03:20:27;100139.51;;;18.78;80.16
3748;BME280;1889;50.058;8.688;2023-05-23T03:22:57;100137.63;;;18.97;79.49
3748;BME280;1889;50.058;8.688;2023-05-23T03:25:26;100142.23;;;19.11;78.99
3748;BME280;1889;50.058;8.688;2023-05-23T03:27:55;100138.15;;;19.21;78.08
3748;BME280;1889;50.058;8.688;2023-05-23T03:30:25;100143.16;;;19.27;77.49
3748;BME280;1889;50.058;8.688;2023-05-23T03:32:54;100141.82;;;19.27;77.34
3748;BME280;1889;50.058;8.688;2023-05-23T03:35:23;100147.02;;;19.21;77.40
3748;BME280;1889;50.058;8.688;2023-05-23T03:37:53;100147.24;;;19.17;77.51
3748;BME280;1889;50.058;8.688;2023-05-23T03:40:22;100160.73;;;19.22;77.34
3748;BME280;1889;50.058;8.688;2023-05-23T03:43:03;100157.69;;;19.21;77.01
3748;BME280;1889;50.058;8.688;2023-05-23T03:45:33;100160.52;;;18.92;78.10
3748;BME280;1889;50.058;8.688;2023-05-23T03:48:02;100162.63;;;18.60;79.43
3748;BME280;1889;50.058;8.688;2023-05-23T03:50:31;100162.63;;;18.60;79.43
3748;BME280;1889;50.058;8.688;2023-05-23T03:53:00;100157.92;;;18.82;78.28
3748;BME280;1889;50.058;8.688;2023-05-23T03:55:30;100157.92;;;18.82;78.28
3748;BME280;1889;50.058;8.688;2023-05-23T03:58:00;100168.59;;;18.56;78.44
3748;BME280;1889;50.058;8.688;2023-05-23T04:00:29;100167.43;;;18.71;77.99
3748;BME280;1889;50.058;8.688;2023-05-23T04:02:58;100167.43;;;18.71;77.99
3748;BME280;1889;50.058;8.688;2023-05-23T04:05:28;100174.17;;;18.69;76.46
3748;BME280;1889;50.058;8.688;2023-05-23T04:07:57;100176.91;;;18.49;77.63
3748;BME280;1889;50.058;8.688;2023-05-23T04:10:28;100176.91;;;18.49;77.63
3748;BME280;1889;50.058;8.688;2023-05-23T04:12:57;100184.07;;;18.21;76.60
3748;BME280;1889;50.058;8.688;2023-05-23T04:15:27;100189.70;;;18.15;75.77
3748;BME280;1889;50.058;8.688;2023-05-23T04:17:56;100194.47;;;18.17;75.74
3748;BME280;1889;50.058;8.688;2023-05-23T04:20:25;100195.20;;;18.20;74.77
3748;BME280;1889;50.058;8.688;2023-05-23T04:22:55;100196.23;;;18.26;74.29
3748;BME280;1889;50.058;8.688;2023-05-23T04:25:24;100200.09;;;18.11;74.16
3748;BME280;1889;50.058;8.688;2023-05-23T04:27:53;100207.18;;;18.02;74.10
3748;BME280;1889;50.058;8.688;2023-05-23T04:30:23;100206.75;;;18.11;73.82
3748;BME280;1889;50.058;8.688;2023-05-23T04:32:52;100203.41;;;18.43;73.50
3748;BME280;1889;50.058;8.688;2023-05-23T04:35:21;100213.56;;;18.73;73.01
3748;BME280;1889;50.058;8.688;2023-05-23T04:37:51;100219.13;;;18.85;72.97
3748;BME280;1889;50.058;8.688;2023-05-23T04:40:22;100218.59;;;18.87;73.37
3748;BME280;1889;50.058;8.688;2023-05-23T04:42:52;100223.55;;;19.03;72.96
3748;BME280;1889;50.058;8.688;2023-05-23T04:45:21;100218.50;;;19.15;72.51
3748;BME280;1889;50.058;8.688;2023-05-23T04:47:51;100219.14;;;19.28;72.16
3748;BME280;1889;50.058;8.688;2023-05-23T04:50:22;100219.04;;;19.30;72.16
3748;BME280;1889;50.058;8.688;2023-05-23T04:52:51;100218.02;;;19.32;71.49
3748;BME280;1889;50.058;8.688;2023-05-23T04:55:20;100231.62;;;19.11;70.29
3748;BME280;1889;50.058;8.688;2023-05-23T04:57:50;100228.13;;;18.74;72.62
3748;BME280;1889;50.058;8.688;2023-05-23T05:00:19;100229.64;;;18.80;71.46
3748;BME280;1889;50.058;8.688;2023-05-23T05:02:49;100240.31;;;19.14;71.00
3748;BME280;1889;50.058;8.688;2023-05-23T05:05:18;100236.71;;;19.24;70.56
3748;BME280;1889;50.058;8.688;2023-05-23T05:07:47;100242.70;;;19.29;70.03
3748;BME280;1889;50.058;8.688;2023-05-23T05:10:17;100240.17;;;19.34;69.67
3748;BME280;1889;50.058;8.688;2023-05-23T05:12:46;100234.53;;;19.49;69.23
3748;BME280;1889;50.058;8.688;2023-05-23T05:15:18;100238.31;;;19.54;69.39
3748;BME280;1889;50.058;8.688;2023-05-23T05:17:48;100244.66;;;19.60;69.47
3748;BME280;1889;50.058;8.688;2023-05-23T05:20:17;100243.31;;;19.68;69.28
3748;BME280;1889;50.058;8.688;2023-05-23T05:22:53;100251.53;;;19.72;69.10
3748;BME280;1889;50.058;8.688;2023-05-23T05:25:17;100252.25;;;19.76;68.65
3748;BME280;1889;50.058;8.688;2023-05-23T05:27:48;100254.27;;;19.79;68.17
3748;BME280;1889;50.058;8.688;2023-05-23T05:30:18;100253.52;;;19.69;67.71
3748;BME280;1889;50.058;8.688;2023-05-23T05:32:47;100254.06;;;19.41;67.49
3748;BME280;1889;50.058;8.688;2023-05-23T05:35:16;100255.16;;;19.63;65.95
3748;BME280;1889;50.058;8.688;2023-05-23T05:37:46;100259.18;;;19.37;67.36
3748;BME280;1889;50.058;8.688;2023-05-23T05:40:15;100259.18;;;19.37;67.36
3748;BME280;1889;50.058;8.688;2023-05-23T05:42:44;100271.30;;;19.53;66.56
3748;BME280;1889;50.058;8.688;2023-05-23T05:45:14;100278.12;;;19.50;66.96
3748;BME280;1889;50.058;8.688;2023-05-23T05:47:44;100279.73;;;19.26;68.95
3748;BME280;1889;50.058;8.688;2023-05-23T05:50:13;100280.25;;;18.98;67.45
3748;BME280;1889;50.058;8.688;2023-05-23T05:52:43;100280.34;;;19.14;66.17
3748;BME280;1889;50.058;8.688;2023-05-23T05:55:12;100288.80;;;18.60;65.77
3748;BME280;1889;50.058;8.688;2023-05-23T05:57:41;100288.06;;;18.57;65.84
3748;BME280;1889;50.058;8.688;2023-05-23T06:00:12;100291.53;;;18.59;63.03
3748;BME280;1889;50.058;8.688;2023-05-23T06:02:46;100291.53;;;18.59;63.03
3748;BME280;1889;50.058;8.688;2023-05-23T06:05:17;100304.36;;;18.41;63.75
3748;BME280;1889;50.058;8.688;2023-05-23T06:07:48;100304.00;;;18.01;63.20
3748;BME280;1889;50.058;8.688;2023-05-23T06:10:17;100304.00;;;18.01;63.20
3748;BME280;1889;50.058;8.688;2023-05-23T06:12:46;100302.59;;;18.79;62.32
3748;BME280;1889;50.058;8.688;2023-05-23T06:15:15;100302.59;;;18.79;62.32
3748;BME280;1889;50.058;8.688;2023-05-23T06:17:45;100311.38;;;18.81;61.96
3748;BME280;1889;50.058;8.688;2023-05-23T06:20:14;100317.92;;;18.55;61.72
3748;BME280;1889;50.058;8.688;2023-05-23T06:22:43;100313.56;;;18.44;61.83
3748;BME280;1889;50.058;8.688;2023-05-23T06:25:12;100315.61;;;18.28;62.38
3748;BME280;1889;50.058;8.688;2023-05-23T06:27:41;100323.52;;;18.40;62.25
3748;BME280;1889;50.058;8.688;2023-05-23T06:30:12;100323.20;;;18.27;62.26
3748;BME280;1889;50.058;8.688;2023-05-23T06:32:41;100327.77;;;18.34;62.24
3748;BME280;1889;50.058;8.688;2023-05-23T06:35:10;100327.52;;;18.49;61.65
3748;BME280;1889;50.058;8.688;2023-05-23T06:37:40;100320.95;;;18.47;62.14
3748;BME280;1889;50.058;8.688;2023-05-23T06:40:13;100333.92;;;18.74;62.23
3748;BME280;1889;50.058;8.688;2023-05-23T06:42:42;100327.85;;;18.80;61.06
3748;BME280;1889;50.058;8.688;2023-05-23T06:45:12;100320.09;;;18.65;61.36
3748;BME280;1889;50.058;8.688;2023-05-23T06:47:41;100317.06;;;18.64;60.89
3748;BME280;1889;50.058;8.688;2023-05-23T06:50:12;100317.32;;;18.77;60.36
3748;BME280;1889;50.058;8.688;2023-05-23T06:52:41;100320.50;;;18.94;60.54
3748;BME280;1889;50.058;8.688;2023-05-23T06:55:10;100319.83;;;19.16;60.23
3748;BME280;1889;50.058;8.688;2023-05-23T06:57:41;100321.34;;;19.39;60.14
3748;BME280;1889;50.058;8.688;2023-05-23T07:00:11;100313.22;;;19.06;59.73
3748;BME280;1889;50.058;8.688;2023-05-23T07:02:41;100313.22;;;19.06;59.73
3748;BME280;1889;50.058;8.688;2023-05-23T07:05:11;100323.59;;;19.03;59.50
3748;BME280;1889;50.058;8.688;2023-05-23T07:07:42;100324.32;;;18.80;59.64
3748;BME280;1889;50.058;8.688;2023-05-23T07:10:11;100317.09;;;18.82;60.44
3748;BME280;1889;50.058;8.688;2023-05-23T07:12:40;100309.50;;;19.36;59.33
3748;BME280;1889;50.058;8.688;2023-05-23T07:15:10;100311.23;;;19.54;59.10
3748;BME280;1889;50.058;8.688;2023-05-23T07:17:39;100303.80;;;19.61;58.69
3748;BME280;1889;50.058;8.688;2023-05-23T07:20:08;100302.20;;;19.74;58.18
3748;BME280;1889;50.058;8.688;2023-05-23T07:22:38;100298.75;;;19.63;57.98
3748;BME280;1889;50.058;8.688;2023-05-23T07:25:07;100301.34;;;19.73;57.86
3748;BME280;1889;50.058;8.688;2023-05-23T07:27:37;100306.22;;;19.65;57.36
3748;BME280;1889;50.058;8.688;2023-05-23T07:30:06;100303.51;;;19.22;58.03
3748;BME280;1889;50.058;8.688;2023-05-23T07:32:36;100304.89;;;19.48;58.24
3748;BME280;1889;50.058;8.688;2023-05-23T07:35:06;100310.37;;;19.71;57.58
3748;BME280;1889;50.058;8.688;2023-05-23T07:37:35;100305.80;;;19.90;56.95
3748;BME280;1889;50.058;8.688;2023-05-23T07:40:05;100320.44;;;19.57;56.64
3748;BME280;1889;50.058;8.688;2023-05-23T07:42:36;100314.45;;;19.43;57.48
3748;BME280;1889;50.058;8.688;2023-05-23T07:45:05;100330.41;;;19.62;57.07
3748;BME280;1889;50.058;8.688;2023-05-23T07:47:34;100327.25;;;19.80;57.09
3748;BME280;1889;50.058;8.688;2023-05-23T07:50:04;100315.22;;;19.89;56.85
3748;BME280;1889;50.058;8.688;2023-05-23T07:52:33;100331.66;;;19.72;57.03
3748;BME280;1889;50.058;8.688;2023-05-23T07:55:03;100337.19;;;19.69;57.15
3748;BME280;1889;50.058;8.688;2023-05-23T07:57:32;100332.19;;;19.27;58.77
3748;BME280;1889;50.058;8.688;2023-05-23T08:00:01;100334.30;;;19.21;59.23
3748;BME280;1889;50.058;8.688;2023-05-23T08:02:31;100332.81;;;18.88;60.16
3748;BME280;1889;50.058;8.688;2023-05-23T08:05:01;100334.08;;;18.98;60.74
3748;BME280;1889;50.058;8.688;2023-05-23T08:07:30;100335.39;;;19.25;60.29
3748;BME280;1889;50.058;8.688;2023-05-23T08:09:59;100335.39;;;19.25;60.29
3748;BME280;1889;50.058;8.688;2023-05-23T08:12:28;100329.38;;;18.94;61.03
3748;BME280;1889;50.058;8.688;2023-05-23T08:14:58;100339.47;;;19.24;60.46
3748;BME280;1889;50.058;8.688;2023-05-23T08:17:27;100334.61;;;19.40;59.67
3748;BME280;1889;50.058;8.688;2023-05-23T08:19:56;100338.73;;;19.48;59.54
3748;BME280;1889;50.058;8.688;2023-05-23T08:22:27;100333.17;;;19.78;58.90
3748;BME280;1889;50.058;8.688;2023-05-23T08:24:56;100331.98;;;19.75;59.48
3748;BME280;1889;50.058;8.688;2023-05-23T08:27:25;100339.27;;;19.46;59.10
3748;BME280;1889;50.058;8.688;2023-05-23T08:29:54;100344.40;;;19.76;59.33
3748;BME280;1889;50.058;8.688;2023-05-23T08:32:23;100336.91;;;19.91;58.80
3748;BME280;1889;50.058;8.688;2023-05-23T08:34:52;100328.56;;;19.97;58.41
3748;BME280;1889;50.058;8.688;2023-05-23T08:37:24;100342.90;;;20.20;57.94
3748;BME280;1889;50.058;8.688;2023-05-23T08:39:55;100344.35;;;20.43;57.35
3748;BME280;1889;50.058;8.688;2023-05-23T08:42:24;100348.70;;;20.29;57.39
3748;BME280;1889;50.058;8.688;2023-05-23T08:44:53;100348.73;;;19.70;59.33
3748;BME280;1889;50.058;8.688;2023-05-23T08:47:22;100340.39;;;19.50;59.79
3748;BME280;1889;50.058;8.688;2023-05-23T08:49:53;100337.38;;;19.99;58.85
3748;BME280;1889;50.058;8.688;2023-05-23T08:52:24;100341.03;;;20.14;58.32
3748;BME280;1889;50.058;8.688;2023-05-23T08:54:55;100348.28;;;19.95;59.23
3748;BME280;1889;50.058;8.688;2023-05-23T08:57:24;100343.75;;;19.71;59.09
3748;BME280;1889;50.058;8.688;2023-05-23T08:59:54;100347.87;;;20.11;58.57
3748;BME280;1889;50.058;8.688;2023-05-23T09:02:24;100346.58;;;20.35;57.80
3748;BME280;1889;50.058;8.688;2023-05-23T09:04:53;100352.20;;;20.13;58.28
3748;BME280;1889;50.058;8.688;2023-05-23T09:07:22;100349.02;;;20.31;58.33
3748;BME280;1889;50.058;8.688;2023-05-23T09:09:51;100347.01;;;20.68;57.49
3748;BME280;1889;50.058;8.688;2023-05-23T09:12:20;100356.77;;;20.84;56.77
3748;BME280;1889;50.058;8.688;2023-05-23T09:14:50;100346.24;;;20.50;56.62
3748;BME280;1889;50.058;8.688;2023-05-23T09:17:19;100358.22;;;20.83;56.12
3748;BME280;1889;50.058;8.688;2023-05-23T09:19:49;100357.83;;;20.42;57.64
3748;BME280;1889;50.058;8.688;2023-05-23T09:22:23;100356.47;;;20.09;57.85
3748;BME280;1889;50.058;8.688;2023-05-23T09:24:55;100361.82;;;20.00;57.96
3748;BME280;1889;50.058;8.688;2023-05-23T09:27:24;100362.30;;;19.74;58.74
3748;BME280;1889;50.058;8.688;2023-05-23T09:29:53;100360.83;;;19.77;59.31
3748;BME280;1889;50.058;8.688;2023-05-23T09:32:22;100357.16;;;20.04;58.33
3748;BME280;1889;50.058;8.688;2023-05-23T09:34:59;100367.17;;;19.92;58.83
3748;BME280;1889;50.058;8.688;2023-05-23T09:37:38;100361.64;;;19.95;58.84
3748;BME280;1889;50.058;8.688;2023-05-23T09:40:09;100357.14;;;20.12;58.67
3748;BME280;1889;50.058;8.688;2023-05-23T09:42:42;100354.13;;;19.94;58.59
3748;BME280;1889;50.058;8.688;2023-05-23T09:45:12;100362.92;;;20.29;58.12
3748;BME280;1889;50.058;8.688;2023-05-23T09:47:54;100353.97;;;20.63;56.89
3748;BME280;1889;50.058;8.688;2023-05-23T09:50:25;100357.50;;;20.31;56.55
3748;BME280;1889;50.058;8.688;2023-05-23T09:52:54;100361.78;;;20.26;55.32
3748;BME280;1889;50.058;8.688;2023-05-23T09:55:23;100358.94;;;20.20;55.45
3748;BME280;1889;50.058;8.688;2023-05-23T09:57:53;100367.75;;;20.23;54.90
3748;BME280;1889;50.058;8.688;2023-05-23T10:00:26;100360.05;;;20.25;55.49
3748;BME280;1889;50.058;8.688;2023-05-23T10:03:12;100366.45;;;20.47;55.02
3748;BME280;1889;50.058;8.688;2023-05-23T10:05:49;100365.11;;;20.71;55.22
3748;BME280;1889;50.058;8.688;2023-05-23T10:08:24;100362.66;;;20.91;54.04
3748;BME280;1889;50.058;8.688;2023-05-23T10:11:37;100357.39;;;20.89;53.51
3748;BME280;1889;50.058;8.688;2023-05-23T10:13:45;100360.88;;;21.14;52.95
3748;BME280;1889;50.058;8.688;2023-05-23T10:16:22;100364.66;;;21.10;52.27
3748;BME280;1889;50.058;8.688;2023-05-23T10:18:54;100372.16;;;20.97;52.65
3748;BME280;1889;50.058;8.688;2023-05-23T10:21:32;100361.52;;;21.11;52.45
3748;BME280;1889;50.058;8.688;2023-05-23T10:24:03;100365.09;;;21.34;52.45
3748;BME280;1889;50.058;8.688;2023-05-23T10:26:32;100371.45;;;20.93;52.51
3748;BME280;1889;50.058;8.688;2023-05-23T10:29:02;100375.52;;;20.60;53.51
3748;BME280;1889;50.058;8.688;2023-05-23T10:31:32;100384.97;;;20.43;54.21
3748;BME280;1889;50.058;8.688;2023-05-23T10:36:58;100394.06;;;20.47;53.70
3748;BME280;1889;50.058;8.688;2023-05-23T10:42:40;100394.88;;;20.65;53.88
3748;BME280;1889;50.058;8.688;2023-05-23T10:45:18;100385.57;;;20.88;53.50
3748;BME280;1889;50.058;8.688;2023-05-23T10:47:49;100392.85;;;21.09;53.69
3748;BME280;1889;50.058;8.688;2023-05-23T10:50:34;100393.13;;;21.04;53.27
3748;BME280;1889;50.058;8.688;2023-05-23T10:53:05;100382.44;;;21.20;53.26
3748;BME280;1889;50.058;8.688;2023-05-23T10:55:36;100378.34;;;21.21;52.26
3748;BME280;1889;50.058;8.688;2023-05-23T10:58:16;100388.29;;;20.95;52.49
3748;BME280;1889;50.058;8.688;2023-05-23T11:00:55;100375.61;;;20.83;53.18
3748;BME280;1889;50.058;8.688;2023-05-23T11:06:38;100399.33;;;20.73;53.60
3748;BME280;1889;50.058;8.688;2023-05-23T11:09:15;100401.25;;;20.63;54.35
3748;BME280;1889;50.058;8.688;2023-05-23T11:12:00;100393.20;;;21.03;53.23
3748;BME280;1889;50.058;8.688;2023-05-23T11:17:23;100395.02;;;20.86;53.57
3748;BME280;1889;50.058;8.688;2023-05-23T11:20:08;100396.86;;;20.77;53.48
3748;BME280;1889;50.058;8.688;2023-05-23T11:22:46;100398.97;;;20.64;54.04
3748;BME280;1889;50.058;8.688;2023-05-23T11:25:11;100396.94;;;20.18;55.05
3748;BME280;1889;50.058;8.688;2023-05-23T11:27:40;100405.79;;;20.19;55.12
3748;BME280;1889;50.058;8.688;2023-05-23T11:30:17;100410.92;;;20.15;55.18
3748;BME280;1889;50.058;8.688;2023-05-23T11:32:50;100403.03;;;20.29;55.61
3748;BME280;1889;50.058;8.688;2023-05-23T11:35:20;100403.74;;;20.50;54.80
3748;BME280;1889;50.058;8.688;2023-05-23T11:37:49;100402.02;;;20.32;55.21
3748;BME280;1889;50.058;8.688;2023-05-23T11:40:31;100398.79;;;20.51;54.62
3748;BME280;1889;50.058;8.688;2023-05-23T11:43:03;100406.58;;;20.71;54.85
3748;BME280;1889;50.058;8.688;2023-05-23T11:45:34;100411.20;;;20.43;54.11
3748;BME280;1889;50.058;8.688;2023-05-23T11:48:14;100407.13;;;20.69;54.50
3748;BME280;1889;50.058;8.688;2023-05-23T11:50:45;100411.01;;;20.64;53.78
3748;BME280;1889;50.058;8.688;2023-05-23T11:53:15;100415.06;;;20.46;54.29
3748;BME280;1889;50.058;8.688;2023-05-23T11:55:50;100416.30;;;20.81;54.21
3748;BME280;1889;50.058;8.688;2023-05-23T11:58:21;100414.55;;;21.04;53.15
3748;BME280;1889;50.058;8.688;2023-05-23T12:00:50;100401.50;;;21.45;53.34
3748;BME280;1889;50.058;8.688;2023-05-23T12:03:19;100410.37;;;21.39;53.14
3748;BME280;1889;50.058;8.688;2023-05-23T12:05:48;100399.09;;;21.63;52.67
3748;BME280;1889;50.058;8.688;2023-05-23T12:08:18;100408.70;;;21.82;52.40
3748;BME280;1889;50.058;8.688;2023-05-23T12:10:58;100409.79;;;21.56;51.40
3748;BME280;1889;50.058;8.688;2023-05-23T12:13:28;100410.54;;;21.58;52.04
3748;BME280;1889;50.058;8.688;2023-05-23T12:16:01;100412.41;;;21.49;52.39
3748;BME280;1889;50.058;8.688;2023-05-23T12:18:31;100410.42;;;21.30;51.71
3748;BME280;1889;50.058;8.688;2023-05-23T12:21:05;100404.94;;;21.40;52.05
3748;BME280;1889;50.058;8.688;2023-05-23T12:23:36;100403.79;;;21.44;51.38
3748;BME280;1889;50.058;8.688;2023-05-23T12:26:06;100408.00;;;21.64;51.58
3748;BME280;1889;50.058;8.688;2023-05-23T12:28:42;100404.97;;;21.47;51.66
3748;BME280;1889;50.058;8.688;2023-05-23T12:31:17;100413.41;;;21.08;52.21
3748;BME280;1889;50.058;8.688;2023-05-23T12:33:47;100410.37;;;21.07;51.89
3748;BME280;1889;50.058;8.688;2023-05-23T12:36:24;100403.28;;;21.38;52.43
3748;BME280;1889;50.058;8.688;2023-05-23T12:39:00;100399.71;;;21.83;51.14
3748;BME280;1889;50.058;8.688;2023-05-23T12:41:26;100404.09;;;21.69;50.55
3748;BME280;1889;50.058;8.688;2023-05-23T12:43:55;100402.34;;;22.21;49.67
3748;BME280;1889;50.058;8.688;2023-05-23T12:46:25;100418.98;;;22.12;49.41
3748;BME280;1889;50.058;8.688;2023-05-23T12:48:55;100408.77;;;21.73;50.04
3748;BME280;1889;50.058;8.688;2023-05-23T12:51:24;100416.77;;;21.59;49.77
3748;BME280;1889;50.058;8.688;2023-05-23T12:53:53;100417.22;;;21.81;49.53
3748;BME280;1889;50.058;8.688;2023-05-23T12:56:23;100420.30;;;21.59;48.87
3748;BME280;1889;50.058;8.688;2023-05-23T12:58:53;100417.05;;;21.54;49.09
3748;BME280;1889;50.058;8.688;2023-05-23T13:01:22;100422.20;;;21.57;49.57
3748;BME280;1889;50.058;8.688;2023-05-23T13:03:51;100420.73;;;21.45;49.82
3748;BME280;1889;50.058;8.688;2023-05-23T13:06:20;100417.50;;;21.77;49.71
3748;BME280;1889;50.058;8.688;2023-05-23T13:08:49;100412.94;;;21.56;49.87
3748;BME280;1889;50.058;8.688;2023-05-23T13:11:21;100416.00;;;21.80;49.73
3748;BME280;1889;50.058;8.688;2023-05-23T13:13:50;100422.56;;;21.51;49.89
3748;BME280;1889;50.058;8.688;2023-05-23T13:16:19;100425.36;;;21.18;50.77
3748;BME280;1889;50.058;8.688;2023-05-23T13:18:48;100421.62;;;21.05;51.61
3748;BME280;1889;50.058;8.688;2023-05-23T13:21:17;100422.88;;;21.07;50.21
3748;BME280;1889;50.058;8.688;2023-05-23T13:23:46;100422.53;;;21.13;50.42
3748;BME280;1889;50.058;8.688;2023-05-23T13:26:15;100424.30;;;21.05;51.02
3748;BME280;1889;50.058;8.688;2023-05-23T13:28:44;100421.83;;;21.09;50.75
3748;BME280;1889;50.058;8.688;2023-05-23T13:31:13;100422.17;;;21.27;50.43
3748;BME280;1889;50.058;8.688;2023-05-23T13:33:42;100424.84;;;21.27;50.75
3748;BME280;1889;50.058;8.688;2023-05-23T13:36:11;100419.45;;;21.20;51.47
3748;BME280;1889;50.058;8.688;2023-05-23T13:38:40;100430.50;;;20.74;52.42
3748;BME280;1889;50.058;8.688;2023-05-23T13:41:09;100433.72;;;20.39;53.88
3748;BME280;1889;50.058;8.688;2023-05-23T13:43:39;100440.66;;;20.35;54.26
3748;BME280;1889;50.058;8.688;2023-05-23T13:46:08;100428.45;;;20.38;53.90